Time;durP1;ratioP1;P1;durP2;ratioP2;P2;SDS_P1;SDS_P2;PMS_P1;PMS_P2;Temp;Humidity;BMP_temperature;BMP_pressure;BME280_temperature;BME280_humidity;BME280_pressure;Samples;Min_cycle;Max_cycle;Signal;HPM_P1;HPM_P2
2022/11/21 00:02:08;;;;;;;7.63;2.83;;;;;;;-141.28;100.00;48754.47;5112172;28;20256;-75
2022/11/21 00:04:35;;;;;;;4.67;2.50;;;;;;;-141.28;100.00;48756.44;5113453;28;20203;-77
2022/11/21 00:07:02;;;;;;;4.23;2.40;;;;;;;-141.28;100.00;48768.19;5112930;28;20665;-77
2022/11/21 00:09:29;;;;;;;5.63;2.00;;;;;;;-141.28;100.00;48776.03;5111821;28;20203;-79
2022/11/21 00:11:56;;;;;;;2.33;1.87;;;;;;;-141.28;100.00;48736.81;5113208;28;20207;-77
2022/11/21 00:14:23;;;;;;;5.03;1.97;;;;;;;-141.28;100.00;48799.59;5113022;28;20619;-78
2022/11/21 00:16:52;;;;;;;2.70;2.00;;;;;;;-141.28;100.00;48758.38;5112058;28;20720;-75
2022/11/21 00:19:19;;;;;;;2.50;2.10;;;;;;;-141.28;100.00;48787.81;5111760;28;20222;-77
2022/11/21 00:21:46;;;;;;;3.50;2.10;;;;;;;-141.28;100.00;48779.97;5111823;28;20223;-76
2022/11/21 00:24:13;;;;;;;3.77;2.07;;;;;;;-141.28;100.00;48787.81;5111945;28;20199;-77
2022/11/21 00:26:40;;;;;;;3.73;2.00;;;;;;;-141.28;100.00;48791.75;5112421;28;20194;-74
2022/11/21 00:29:08;;;;;;;4.57;2.20;;;;;;;-141.28;100.00;48805.47;5111874;28;20207;-77
2022/11/21 00:31:36;;;;;;;3.43;2.17;;;;;;;-141.28;100.00;48803.50;5111875;28;20203;-75
2022/11/21 00:34:04;;;;;;;7.93;2.60;;;;;;;-141.28;100.00;48797.63;5111699;28;20199;-77
2022/11/21 00:36:32;;;;;;;3.53;2.37;;;;;;;-141.28;100.00;48807.44;5111744;28;20202;-76
2022/11/21 00:39:00;;;;;;;3.07;1.83;;;;;;;-141.28;100.00;48807.44;5111656;28;20248;-77
2022/11/21 00:41:26;;;;;;;3.27;1.90;;;;;;;-141.28;100.00;48825.09;5111828;28;20239;-80
2022/11/21 00:43:53;;;;;;;11.33;3.80;;;;;;;-141.28;100.00;48827.06;5111471;28;20682;-78
2022/11/21 00:46:20;;;;;;;10.13;3.10;;;;;;;-141.28;100.00;48832.94;5111563;28;20726;-77
2022/11/21 00:48:47;;;;;;;11.63;3.77;;;;;;;-141.28;100.00;48813.31;5111088;28;20206;-76
2022/11/21 00:51:16;;;;;;;1.50;1.13;;;;;;;-141.28;100.00;48836.88;5111883;28;20215;-77
2022/11/21 00:53:43;;;;;;;1.20;1.10;;;;;;;-141.28;100.00;48836.88;5111953;28;20199;-76
2022/11/21 00:56:09;;;;;;;4.03;1.10;;;;;;;-141.28;100.00;48846.69;5111723;28;20199;-77
2022/11/21 00:58:36;;;;;;;2.10;1.10;;;;;;;-141.28;100.00;48819.22;5111350;28;20708;-77
2022/11/21 01:01:06;;;;;;;1.57;1.10;;;;;;;-141.28;100.00;48854.53;5111153;28;20202;-80
2022/11/21 01:03:33;;;;;;;3.93;1.40;;;;;;;-141.28;100.00;48864.34;5110395;28;20195;-77
2022/11/21 01:06:02;;;;;;;4.80;1.57;;;;;;;-141.28;100.00;48830.97;5111595;28;20638;-76
2022/11/21 01:08:31;;;;;;;3.70;1.50;;;;;;;-141.28;100.00;48838.81;5111479;28;20194;-79
2022/11/21 01:11:03;;;;;;;2.50;1.40;;;;;;;-141.28;100.00;48799.59;5111526;28;20670;-75
2022/11/21 01:13:29;;;;;;;5.73;1.60;;;;;;;-141.28;100.00;48827.06;5098335;28;20226;-76
2022/11/21 01:15:56;;;;;;;2.93;1.53;;;;;;;-141.28;100.00;48829.00;5111094;28;20218;-77
2022/11/21 01:18:23;;;;;;;6.17;1.80;;;;;;;-141.28;100.00;48850.59;5111388;28;20645;-76
2022/11/21 01:20:50;;;;;;;1.97;1.60;;;;;;;-141.28;100.00;48858.44;5113405;28;20765;-77
2022/11/21 01:23:17;;;;;;;2.30;1.47;;;;;;;-141.28;100.00;48885.91;5115675;28;20240;-76
2022/11/21 01:25:47;;;;;;;4.27;1.57;;;;;;;-141.28;100.00;48889.84;5115206;28;20203;-76
2022/11/21 01:28:14;;;;;;;2.33;1.33;;;;;;;-141.28;100.00;48905.53;5115316;28;20199;-76
2022/11/21 01:30:43;;;;;;;3.13;1.37;;;;;;;-141.28;100.00;48909.47;5115529;28;20210;-76
2022/11/21 01:33:10;;;;;;;3.93;1.20;;;;;;;-141.28;100.00;48913.38;5106848;28;20657;-78
2022/11/21 01:35:36;;;;;;;1.70;1.00;;;;;;;-141.28;100.00;48944.78;5110884;28;20248;-77
2022/11/21 01:38:03;;;;;;;1.00;0.80;;;;;;;-141.28;100.00;48954.59;5115334;28;20681;-77
2022/11/21 01:40:37;;;;;;;2.13;0.90;;;;;;;-141.28;100.00;48976.16;5114812;28;20234;-77
2022/11/21 01:43:14;;;;;;;2.00;0.93;;;;;;;-141.28;100.00;48929.06;5115040;28;20199;-75
2022/11/21 01:45:57;;;;;;;0.87;0.53;;;;;;;-141.28;100.00;48913.38;5115280;28;20203;-77
2022/11/21 01:48:31;;;;;;;2.33;0.70;;;;;;;-141.28;100.00;48897.69;5114548;28;20202;-76
2022/11/21 01:51:02;;;;;;;1.90;0.70;;;;;;;-141.28;100.00;48885.91;5109726;28;20198;-75
2022/11/21 01:53:29;;;;;;;1.07;0.73;;;;;;;-141.28;100.00;48850.59;5114126;28;20280;-75
2022/11/21 01:55:56;;;;;;;3.17;2.03;;;;;;;-141.28;100.00;48893.75;5114443;28;20710;-78
2022/11/21 01:58:25;;;;;;;4.40;2.10;;;;;;;-141.28;100.00;48897.69;5113523;28;20206;-75
2022/11/21 02:00:52;;;;;;;4.33;3.00;;;;;;;-141.28;100.00;48882.00;5114604;28;20198;-77
2022/11/21 02:03:23;;;;;;;6.50;2.50;;;;;;;-141.28;100.00;48889.84;5114497;28;20199;-78
2022/11/21 02:05:53;;;;;;;3.87;2.07;;;;;;;-141.28;100.00;48880.03;5100167;28;20195;-75
2022/11/21 02:08:23;;;;;;;7.67;2.30;;;;;;;-141.28;100.00;48899.66;5116096;28;20232;-75
2022/11/21 02:10:59;;;;;;;5.97;2.20;;;;;;;-141.28;100.00;48870.22;5115190;28;20260;-75
2022/11/21 02:13:28;;;;;;;5.73;2.17;;;;;;;-141.28;100.00;48846.69;5115447;28;20331;-77
2022/11/21 02:15:55;;;;;;;4.63;2.27;;;;;;;-141.28;100.00;48834.91;5114469;28;20227;-75
2022/11/21 02:18:22;;;;;;;6.13;2.10;;;;;;;-141.28;100.00;48836.88;5100691;28;20237;-75
2022/11/21 02:20:57;;;;;;;4.40;2.17;;;;;;;-141.28;100.00;48844.72;5114261;28;20222;-75
2022/11/21 02:23:31;;;;;;;6.07;2.03;;;;;;;-141.28;100.00;48868.25;5113301;28;20609;-75
2022/11/21 02:26:00;;;;;;;2.53;1.87;;;;;;;-141.28;100.00;48781.94;5114212;28;20206;-76
2022/11/21 02:28:30;;;;;;;7.23;2.80;;;;;;;-141.28;100.00;48838.81;5114260;28;20272;-74
2022/11/21 02:30:57;;;;;;;3.87;1.70;;;;;;;-141.28;100.00;48858.44;5113573;28;20700;-77
2022/11/21 02:33:24;;;;;;;1.80;1.60;;;;;;;-141.28;100.00;48862.38;5113092;28;20738;-76
2022/11/21 02:35:58;;;;;;;5.73;2.30;;;;;;;-141.28;100.00;48878.06;5113595;28;20199;-77
2022/11/21 02:38:29;;;;;;;4.20;2.70;;;;;;;-141.28;100.00;48903.56;5113712;28;20202;-76
2022/11/21 02:41:07;;;;;;;6.47;2.43;;;;;;;-141.28;100.00;48897.69;5113818;28;20203;-76
2022/11/21 02:43:42;;;;;;;5.60;2.80;;;;;;;-141.28;100.00;48889.84;5114196;28;20194;-74
2022/11/21 02:46:09;;;;;;;4.90;2.70;;;;;;;-141.28;100.00;48901.59;5101798;28;20209;-75
2022/11/21 02:48:37;;;;;;;6.73;2.30;;;;;;;-141.28;100.00;48909.47;5113637;28;20203;-75
2022/11/21 02:51:04;;;;;;;5.57;2.60;;;;;;;-141.28;100.00;48917.31;5113630;28;20198;-76
2022/11/21 02:53:31;;;;;;;4.00;2.10;;;;;;;-141.28;100.00;48960.47;5113848;28;20263;-76
2022/11/21 02:55:58;;;;;;;3.90;1.60;;;;;;;-141.28;100.00;48962.44;5113471;28;20300;-75
2022/11/21 02:58:26;;;;;;;3.03;1.47;;;;;;;-141.28;100.00;48984.00;5112171;28;20199;-76
2022/11/21 03:00:53;;;;;;;3.23;1.77;;;;;;;-141.28;100.00;48956.53;5113585;28;20227;-78
2022/11/21 03:03:20;;;;;;;4.13;1.60;;;;;;;-141.28;100.00;48968.31;5113300;28;20745;-76
2022/11/21 03:05:47;;;;;;;2.97;1.10;;;;;;;-141.28;100.00;48956.53;5113395;28;20195;-76
2022/11/21 03:08:14;;;;;;;2.57;1.30;;;;;;;-141.28;100.00;48913.38;5113253;28;20251;-76
2022/11/21 03:10:41;;;;;;;3.93;1.30;;;;;;;-141.28;100.00;48940.84;5113422;28;20194;-76
2022/11/21 03:13:08;;;;;;;2.97;1.33;;;;;;;-141.28;100.00;48944.78;5111678;28;20259;-75
2022/11/21 03:15:37;;;;;;;4.60;2.67;;;;;;;-141.28;100.00;48952.63;5102110;28;20215;-79
2022/11/21 03:18:05;;;;;;;4.10;2.30;;;;;;;-141.28;100.00;48933.00;5112703;28;20255;-76
2022/11/21 03:20:33;;;;;;;1.73;1.27;;;;;;;-141.28;100.00;48919.25;5112847;28;20698;-77
2022/11/21 03:23:00;;;;;;;5.10;1.40;;;;;;;-141.28;100.00;48952.63;5112706;28;20230;-76
2022/11/21 03:25:27;;;;;;;5.93;2.10;;;;;;;-141.28;100.00;48885.91;5113045;28;20210;-77
2022/11/21 03:27:54;;;;;;;4.97;1.80;;;;;;;-141.28;100.00;48891.78;5112870;28;20723;-78
2022/11/21 03:30:22;;;;;;;4.37;2.03;;;;;;;-141.28;100.00;48874.13;5112544;28;20253;-75
2022/11/21 03:32:50;;;;;;;3.57;1.50;;;;;;;-141.28;100.00;48803.50;5112697;28;20654;-75
2022/11/21 03:35:18;;;;;;;6.33;1.60;;;;;;;-141.28;100.00;48805.47;5112741;28;20195;-78
2022/11/21 03:37:48;;;;;;;5.27;1.57;;;;;;;-141.28;100.00;48823.13;5112641;28;20746;-75
2022/11/21 03:40:14;;;;;;;3.83;1.30;;;;;;;-141.28;100.00;48829.00;5112616;28;20226;-77
2022/11/21 03:42:42;;;;;;;4.00;1.00;;;;;;;-141.28;100.00;48823.13;5112207;28;20676;-79
2022/11/21 03:45:09;;;;;;;9.80;1.40;;;;;;;-141.28;100.00;48819.22;5112727;28;20695;-79
2022/11/21 03:47:37;;;;;;;8.03;1.40;;;;;;;-141.28;100.00;48811.34;5112790;28;20570;-74
2022/11/21 03:50:06;;;;;;;3.77;1.40;;;;;;;-141.28;100.00;48815.28;5112537;28;20213;-75
2022/11/21 03:52:34;;;;;;;6.13;1.50;;;;;;;-141.28;100.00;48807.44;5099646;28;20636;-77
2022/11/21 03:55:01;;;;;;;6.60;1.97;;;;;;;-141.28;100.00;48842.75;5111730;28;20198;-78
2022/11/21 03:57:28;;;;;;;7.40;3.13;;;;;;;-141.28;100.00;48880.03;5111900;28;20260;-78
2022/11/21 03:59:55;;;;;;;8.50;3.97;;;;;;;-141.28;100.00;48887.88;5112124;28;20300;-76
2022/11/21 04:02:22;;;;;;;20.00;7.30;;;;;;;-141.28;100.00;48868.25;5099605;28;20252;-76
2022/11/21 04:04:49;;;;;;;35.40;13.30;;;;;;;-141.28;100.00;48787.81;5112379;28;20207;-77
2022/11/21 04:07:17;;;;;;;30.27;12.13;;;;;;;-141.28;100.00;48830.97;5113050;28;20202;-75
2022/11/21 04:09:44;;;;;;;25.00;9.93;;;;;;;-141.28;100.00;48838.81;5121549;28;20202;-75
2022/11/21 04:12:10;;;;;;;7.00;3.00;;;;;;;-141.28;100.00;48933.00;5109577;28;20203;-74
2022/11/21 04:14:37;;;;;;;8.10;2.50;;;;;;;-141.28;100.00;48917.31;5124436;28;20206;-74
2022/11/21 04:17:05;;;;;;;3.93;1.50;;;;;;;-141.28;100.00;48936.91;5122108;28;20641;-75
2022/11/21 04:19:31;;;;;;;6.00;2.00;;;;;;;-141.28;100.00;48944.78;5119570;28;20603;-75
2022/11/21 04:21:58;;;;;;;4.20;1.97;;;;;;;-141.28;100.00;48944.78;5118309;28;20198;-75
2022/11/21 04:24:26;;;;;;;4.77;2.10;;;;;;;-141.28;100.00;48960.47;5112813;28;20284;-76
2022/11/21 04:26:54;;;;;;;7.60;1.90;;;;;;;-141.28;100.00;48999.72;5112074;28;20195;-74
2022/11/21 04:29:21;;;;;;;3.63;2.20;;;;;;;-141.28;100.00;49023.25;5112126;28;20207;-75
2022/11/21 04:31:48;;;;;;;5.33;1.40;;;;;;;-141.28;100.00;48980.09;5112039;28;20202;-78
2022/11/21 04:34:15;;;;;;;7.90;1.80;;;;;;;-141.28;100.00;48948.69;5111794;28;20634;-75
2022/11/21 04:36:42;;;;;;;4.20;1.60;;;;;;;-141.28;100.00;48921.22;5112152;28;20244;-77
2022/11/21 04:39:09;;;;;;;5.00;1.80;;;;;;;-141.28;100.00;48917.31;5111709;28;20226;-77
2022/11/21 04:41:38;;;;;;;2.27;1.23;;;;;;;-141.28;100.00;48938.88;5111876;28;20681;-77
2022/11/21 04:44:05;;;;;;;7.87;1.53;;;;;;;-141.28;100.00;48929.06;5111678;28;20207;-78
2022/11/21 04:46:32;;;;;;;4.67;1.60;;;;;;;-141.28;100.00;48887.88;5111917;28;20260;-79
2022/11/21 04:48:59;;;;;;;6.13;2.33;;;;;;;-141.28;100.00;48832.94;5111403;28;20202;-76
2022/11/21 04:51:26;;;;;;;7.03;2.00;;;;;;;-141.28;100.00;48701.50;5111819;28;20609;-77
2022/11/21 04:53:53;;;;;;;3.63;1.70;;;;;;;-141.28;100.00;48632.84;5111661;28;20704;-76
2022/11/21 04:56:20;;;;;;;6.97;1.77;;;;;;;-141.28;100.00;48583.78;5115014;28;20259;-75
2022/11/21 04:58:52;;;;;;;4.27;1.90;;;;;;;-141.28;100.00;48534.75;5110652;28;20261;-75
2022/11/21 05:01:18;;;;;;;3.70;2.23;;;;;;;-141.28;100.00;48475.88;5108096;28;20268;-77
2022/11/21 05:03:45;;;;;;;3.67;2.00;;;;;;;-141.28;100.00;48456.28;5111071;28;20206;-78
2022/11/21 05:06:13;;;;;;;3.37;1.87;;;;;;;-141.28;100.00;48411.16;5109311;28;20211;-75
2022/11/21 05:08:40;;;;;;;6.60;2.23;;;;;;;-141.28;100.00;48450.38;5117073;28;20252;-76
2022/11/21 05:13:54;;;;;;;4.00;2.60;;;;;;;-141.28;100.00;48521.00;5116550;28;20295;-77
2022/11/21 05:16:21;;;;;;;7.60;3.93;;;;;;;-141.28;100.00;48550.44;5115640;28;20214;-76
2022/11/21 05:18:48;;;;;;;3.30;2.00;;;;;;;-141.28;100.00;48603.41;5115667;28;20278;-78
2022/11/21 05:21:15;;;;;;;2.70;1.97;;;;;;;-141.28;100.00;48658.34;5115562;28;20262;-77
2022/11/21 05:23:42;;;;;;;3.23;2.10;;;;;;;-141.28;100.00;48721.13;5115576;28;20560;-77
2022/11/21 05:26:10;;;;;;;2.13;1.83;;;;;;;-141.28;100.00;48781.94;5115054;28;20263;-76
2022/11/21 05:28:36;;;;;;;4.33;2.00;;;;;;;-141.28;100.00;48842.75;5115677;28;20260;-77
2022/11/21 05:31:05;;;;;;;3.60;2.20;;;;;;;-141.28;100.00;48909.47;5116429;28;20244;-75
2022/11/21 05:33:32;;;;;;;3.07;1.87;;;;;;;-141.28;100.00;48976.16;5118115;28;20665;-77
2022/11/21 05:36:03;;;;;;;5.27;2.90;;;;;;;-141.28;100.00;49025.22;5115486;28;20228;-80
2022/11/21 05:38:31;;;;;;;4.30;2.60;;;;;;;-141.28;100.00;49007.56;5115470;28;20509;-75
2022/11/21 05:40:58;;;;;;;4.37;2.37;;;;;;;-141.28;100.00;49125.28;5114882;28;20495;-77
2022/11/21 05:46:10;;;;;;;5.10;2.00;;;;;;;-141.28;100.00;49117.44;5114973;28;20279;-75
2022/11/21 05:48:39;;;;;;;5.93;3.10;;;;;;;-141.28;100.00;49101.72;5115141;28;20450;-79
2022/11/21 05:51:05;;;;;;;7.13;3.30;;;;;;;-141.28;100.00;49172.38;5115121;28;20468;-76
2022/11/21 05:53:32;;;;;;;5.43;2.13;;;;;;;-141.28;100.00;49180.22;5114452;28;20497;-78
2022/11/21 05:56:03;;;;;;;3.30;2.20;;;;;;;-141.28;100.00;49223.38;5114817;28;20528;-75
2022/11/21 05:58:29;;;;;;;3.57;2.60;;;;;;;-141.28;100.00;49258.69;5114818;28;20517;-76
2022/11/21 06:00:57;;;;;;;3.30;2.07;;;;;;;-141.28;100.00;49348.97;5114556;28;20483;-75
2022/11/21 06:03:29;;;;;;;4.47;1.77;;;;;;;-141.28;100.00;49439.22;5113847;28;20458;-75
2022/11/21 06:06:01;;;;;;;3.23;2.30;;;;;;;-141.28;100.00;49713.94;5114248;28;20966;-75
2022/11/21 06:08:29;;;;;;;4.13;2.23;;;;;;;-141.28;100.00;49969.06;5113754;28;20456;-74
2022/11/21 06:10:56;;;;;;;5.67;2.00;;;;;;;-141.28;100.00;49808.16;5114380;28;20448;-75
2022/11/21 06:13:23;;;;;;;2.30;1.63;;;;;;;-141.28;100.00;49959.25;5114276;28;20662;-75
2022/11/21 06:15:52;;;;;;;3.07;1.47;;;;;;;-141.28;100.00;50296.84;5114936;28;20218;-75
2022/11/21 06:18:19;;;;;;;1.70;1.50;;;;;;;-141.28;100.00;50279.19;5114229;28;20203;-76
2022/11/21 06:20:48;;;;;;;2.83;1.53;;;;;;;-141.28;100.00;50504.91;5113890;28;20322;-75
2022/11/21 06:23:15;;;;;;;1.40;1.30;;;;;;;-141.28;100.00;50542.19;5114431;28;20203;-75
2022/11/21 06:25:43;;;;;;;2.10;1.47;;;;;;;-141.28;100.00;50373.38;5114191;28;20206;-76
2022/11/21 06:28:10;;;;;;;5.87;1.40;;;;;;;-141.28;100.00;49892.53;5114141;28;20627;-77
2022/11/21 06:30:37;;;;;;;1.67;0.93;;;;;;;-141.28;100.00;49635.47;5113652;28;20206;-74
2022/11/21 06:33:05;;;;;;;1.80;0.90;;;;;;;-141.28;100.00;49466.69;5101076;28;20662;-75
2022/11/21 06:35:33;;;;;;;2.70;1.53;;;;;;;-141.28;100.00;49392.13;5113771;28;20448;-75
2022/11/21 06:38:01;;;;;;;1.87;1.20;;;;;;;-141.28;100.00;49305.78;5114113;28;20452;-75
2022/11/21 06:40:28;;;;;;;1.57;0.77;;;;;;;-141.28;100.00;49270.47;5113376;28;20495;-78
2022/11/21 06:42:56;;;;;;;1.53;1.33;;;;;;;-141.28;100.00;49213.56;5113913;28;20517;-74
2022/11/21 06:45:23;;;;;;;1.87;1.07;;;;;;;-141.28;100.00;49282.25;5113267;28;20505;-77
2022/11/21 06:47:50;;;;;;;2.87;1.40;;;;;;;-141.28;100.00;49325.41;5113843;28;20809;-77
2022/11/21 06:50:17;;;;;;;2.77;1.17;;;;;;;-141.28;100.00;49378.41;5114031;28;20517;-76
2022/11/21 06:52:44;;;;;;;3.50;1.20;;;;;;;-141.28;100.00;49427.44;5114722;28;20457;-77
2022/11/21 06:55:13;;;;;;;5.63;1.67;;;;;;;-141.28;100.00;49384.28;5113847;28;20445;-74
2022/11/21 06:57:42;;;;;;;1.73;1.30;;;;;;;-141.28;100.00;49549.13;5119328;28;20470;-74
2022/11/21 07:00:10;;;;;;;2.70;1.20;;;;;;;-141.28;100.00;49623.69;5125655;28;20476;-73
2022/11/21 07:02:37;;;;;;;1.10;1.00;;;;;;;-141.28;100.00;49662.94;5131344;28;20436;-75
2022/11/21 07:05:04;;;;;;;2.77;1.20;;;;;;;-141.28;100.00;49733.56;5131345;28;20457;-74
2022/11/21 07:07:31;;;;;;;0.73;0.73;;;;;;;-141.28;100.00;49874.88;5132044;28;20486;-72
2022/11/21 07:09:58;;;;;;;1.20;1.00;;;;;;;-141.28;100.00;49894.50;5115782;28;20449;-74
2022/11/21 07:15:11;;;;;;;1.00;0.90;;;;;;;-141.28;100.00;50008.34;5113392;28;20545;-78
2022/11/21 07:17:38;;;;;;;6.23;1.10;;;;;;;-141.28;100.00;50059.34;5113328;28;21014;-76
2022/11/21 07:20:06;;;;;;;0.67;0.67;;;;;;;-141.28;100.00;50122.16;5112891;28;20951;-76
2022/11/21 07:22:33;;;;;;;1.07;0.87;;;;;;;-141.28;100.00;50222.25;5113384;28;20452;-76
2022/11/21 07:25:00;;;;;;;0.73;0.60;;;;;;;-141.28;100.00;50283.09;5099850;28;20449;-74
2022/11/21 07:27:28;;;;;;;2.30;0.90;;;;;;;-141.28;100.00;50357.69;5113017;28;20985;-73
2022/11/21 07:29:57;;;;;;;1.47;1.00;;;;;;;-141.28;100.00;50394.97;5113076;28;20487;-76
2022/11/21 07:32:25;;;;;;;1.40;0.90;;;;;;;-141.28;100.00;50483.31;5098760;28;20844;-77
2022/11/21 07:34:52;;;;;;;2.07;1.00;;;;;;;-141.28;100.00;50552.00;5101977;28;20447;-75
2022/11/21 07:37:19;;;;;;;2.13;1.40;;;;;;;-141.28;100.00;50601.09;5111095;28;20456;-76
2022/11/21 07:39:46;;;;;;;3.40;0.93;;;;;;;-141.28;100.00;50648.19;5102665;28;20445;-78
2022/11/21 07:42:13;;;;;;;4.07;1.03;;;;;;;-141.28;100.00;50716.91;5112593;28;21069;-75
2022/11/21 07:44:42;;;;;;;7.40;1.23;;;;;;;-141.28;100.00;50773.81;5112836;28;20455;-75
2022/11/21 07:47:09;;;;;;;6.87;1.40;;;;;;;-141.28;100.00;50828.78;5112444;28;20453;-75
2022/11/21 07:49:35;;;;;;;3.57;1.20;;;;;;;-141.28;100.00;50887.69;5112397;28;20449;-76
2022/11/21 07:52:02;;;;;;;2.83;1.33;;;;;;;-141.28;100.00;50942.66;5112092;28;20505;-75
2022/11/21 07:54:30;;;;;;;2.27;1.50;;;;;;;-141.28;100.00;51001.56;5113019;28;20457;-79
2022/11/21 07:56:57;;;;;;;3.47;1.70;;;;;;;-141.28;100.00;51046.69;5111980;28;20906;-76
2022/11/21 07:59:24;;;;;;;3.57;2.10;;;;;;;-141.28;100.00;51078.13;5112305;28;20441;-76
2022/11/21 08:01:52;;;;;;;3.63;1.80;;;;;;;-141.28;100.00;51095.78;5112113;28;20537;-79
2022/11/21 08:04:19;;;;;;;6.37;2.70;;;;;;;-141.28;100.00;51123.28;5112255;28;20494;-75
2022/11/21 08:06:46;;;;;;;3.93;1.87;;;;;;;-141.28;100.00;51166.47;5111664;28;20448;-75
2022/11/21 08:09:13;;;;;;;2.00;1.50;;;;;;;-141.28;100.00;51209.66;5112576;28;20444;-78
2022/11/21 08:11:41;;;;;;;1.53;1.43;;;;;;;-141.28;100.00;51217.50;5112124;28;20451;-75
2022/11/21 08:14:07;;;;;;;1.30;1.20;;;;;;;-141.28;100.00;51233.22;5112223;28;20513;-76
2022/11/21 08:16:35;;;;;;;3.47;1.50;;;;;;;-141.28;100.00;51233.22;5112168;28;20982;-74
2022/11/21 08:19:05;;;;;;;3.20;2.13;;;;;;;-141.28;100.00;51258.72;5112047;28;20514;-75
2022/11/21 08:21:32;;;;;;;2.87;2.00;;;;;;;-141.28;100.00;51331.38;5111989;28;20484;-76
2022/11/21 08:23:59;;;;;;;2.23;1.40;;;;;;;-141.28;100.00;51360.81;5111759;28;20445;-75
2022/11/21 08:26:26;;;;;;;1.97;1.53;;;;;;;-141.28;100.00;51382.44;5111835;28;20449;-76
2022/11/21 08:28:53;;;;;;;3.43;1.80;;;;;;;-141.28;100.00;51453.09;5111276;28;20452;-75
2022/11/21 08:31:21;;;;;;;1.67;1.43;;;;;;;-141.28;100.00;51500.22;5111055;28;20453;-75
2022/11/21 08:33:47;;;;;;;1.83;1.37;;;;;;;-141.28;100.00;51551.28;5111513;28;20895;-75
2022/11/21 08:36:16;;;;;;;2.50;1.63;;;;;;;-141.28;100.00;51586.63;5111658;28;20444;-77
2022/11/21 08:38:43;;;;;;;2.63;1.70;;;;;;;-141.28;100.00;51606.25;5111550;28;21019;-77
2022/11/21 08:43:56;;;;;;;3.00;1.70;;;;;;;-141.28;100.00;51425.63;5111527;28;20521;-74
2022/11/21 08:46:26;;;;;;;3.90;1.70;;;;;;;-141.28;100.00;51508.09;5111380;28;20444;-78
2022/11/21 08:48:53;;;;;;;2.23;1.50;;;;;;;-141.28;100.00;51586.63;5115236;28;20527;-74
2022/11/21 08:51:22;;;;;;;2.43;1.60;;;;;;;-141.28;100.00;51645.53;5115418;28;20440;-78
2022/11/21 08:53:49;;;;;;;4.13;1.30;;;;;;;-141.28;100.00;51598.41;5101407;28;20450;-75
2022/11/21 08:56:16;;;;;;;2.83;1.60;;;;;;;-141.28;100.00;51594.47;5108711;28;20445;-75
2022/11/21 08:58:43;;;;;;;1.47;1.30;;;;;;;-141.28;100.00;51578.78;5110123;28;20825;-75
2022/11/21 09:01:10;;;;;;;1.20;1.10;;;;;;;-141.28;100.00;51545.38;5111409;28;20481;-77
2022/11/21 09:03:37;;;;;;;2.17;1.40;;;;;;;-141.28;100.00;51496.31;5111184;28;20452;-75
2022/11/21 09:06:04;;;;;;;2.20;1.60;;;;;;;-141.28;100.00;51394.22;5111311;28;20449;-74
2022/11/21 09:08:33;;;;;;;1.30;1.20;;;;;;;-141.28;100.00;51292.13;5097639;28;20505;-76
2022/11/21 09:11:04;;;;;;;1.80;1.30;;;;;;;-141.28;100.00;51262.66;5111252;28;20456;-75
2022/11/21 09:13:31;;;;;;;1.60;1.30;;;;;;;-141.28;100.00;51235.19;5111251;28;20463;-76
2022/11/21 09:18:44;;;;;;;2.47;1.40;;;;;;;-141.28;100.00;51068.28;5099558;28;20416;-77
2022/11/21 09:21:14;;;;;;;1.83;1.40;;;;;;;-141.28;100.00;50981.91;5111541;28;20503;-75
2022/11/21 09:23:42;;;;;;;1.70;1.60;;;;;;;-141.28;100.00;50866.09;5111897;28;20478;-76
2022/11/21 09:26:10;;;;;;;1.83;1.50;;;;;;;-141.28;100.00;50964.25;5110874;28;20453;-75
2022/11/21 09:28:38;;;;;;;3.00;1.60;;;;;;;-141.28;100.00;51001.56;5111319;28;20501;-75
2022/11/21 09:31:05;;;;;;;7.90;2.00;;;;;;;-141.28;100.00;50966.22;5111420;28;20512;-76
2022/11/21 09:33:33;;;;;;;2.70;1.73;;;;;;;-141.28;100.00;51025.09;5111463;28;20837;-78
2022/11/21 09:36:00;;;;;;;3.17;1.87;;;;;;;-141.28;100.00;51084.00;5111006;28;20444;-75
2022/11/21 09:38:28;;;;;;;2.67;1.57;;;;;;;-141.28;100.00;51056.53;5111405;28;20544;-78
2022/11/21 09:41:50;;;;;;;3.50;1.90;;;;;;;-141.28;100.00;51243.03;5111893;28;20480;-77
2022/11/21 09:44:06;;;;;;;1.80;1.50;;;;;;;-141.28;100.00;51115.41;5114951;28;20527;-78
2022/11/21 09:46:40;;;;;;;2.10;1.50;;;;;;;-141.28;100.00;50962.28;5115317;28;20455;-76
2022/11/21 09:49:10;;;;;;;3.30;2.40;;;;;;;-141.28;100.00;50848.44;5115106;28;21010;-75
2022/11/21 09:51:39;;;;;;;3.33;1.90;;;;;;;-141.28;100.00;50811.13;5115101;28;20457;-75
2022/11/21 09:54:13;;;;;;;3.17;1.80;;;;;;;-141.28;100.00;50848.44;5114846;28;20455;-76
2022/11/21 09:56:42;;;;;;;5.37;2.30;;;;;;;-141.28;100.00;50781.69;5114368;28;20463;-76
2022/11/21 09:59:25;;;;;;;2.10;1.80;;;;;;;-141.28;100.00;50730.66;5114782;28;20848;-75
2022/11/21 10:01:51;;;;;;;4.10;2.00;;;;;;;-141.28;100.00;50658.00;5114204;28;20487;-80
2022/11/21 10:04:18;;;;;;;7.63;2.70;;;;;;;-141.28;100.00;50587.34;5114422;28;20444;-75
2022/11/21 10:06:55;;;;;;;6.83;2.50;;;;;;;-141.28;100.00;50467.59;5114336;28;20461;-76
2022/11/21 10:09:30;;;;;;;7.30;2.63;;;;;;;-141.28;100.00;50444.06;5114510;28;20822;-75
2022/11/21 10:15:03;;;;;;;3.80;2.33;;;;;;;-141.28;100.00;50338.06;5093990;27;20534;-74
2022/11/21 10:17:40;;;;;;;3.13;2.20;;;;;;;-141.28;100.00;50330.22;5112709;28;20452;-75
2022/11/21 10:20:28;;;;;;;4.70;2.87;;;;;;;-141.28;100.00;50334.13;5115695;28;20525;-74
2022/11/21 10:23:21;;;;;;;3.60;2.20;;;;;;;-141.28;100.00;50336.09;5115661;28;20492;-77
2022/11/21 10:25:53;;;;;;;3.03;2.60;;;;;;;-141.28;100.00;50271.31;5112613;28;20441;-77
2022/11/21 10:28:28;;;;;;;4.77;2.13;;;;;;;-141.28;100.00;50404.81;5114125;28;20444;-76
2022/11/21 10:30:58;;;;;;;4.70;2.57;;;;;;;-141.28;100.00;50495.09;5113930;28;20971;-76
2022/11/21 10:33:31;;;;;;;4.30;2.40;;;;;;;-141.28;100.00;50644.28;5114382;28;20441;-76
2022/11/21 10:36:04;;;;;;;12.93;3.73;;;;;;;-141.28;100.00;50640.34;5113842;28;20524;-75
2022/11/21 10:38:38;;;;;;;4.97;2.70;;;;;;;-141.28;100.00;50919.09;5113741;28;20501;-76
2022/11/21 10:41:13;;;;;;;5.57;2.83;;;;;;;-141.28;100.00;50919.09;5101131;28;20579;-75
2022/11/21 10:46:32;;;;;;;2.77;2.40;;;;;;;-141.28;100.00;51015.28;5114768;28;20432;-76
2022/11/21 10:49:06;;;;;;;4.33;2.70;;;;;;;-141.28;100.00;51021.19;5113874;28;20448;-75
2022/11/21 10:51:45;;;;;;;4.00;2.70;;;;;;;-141.28;100.00;50962.28;5113993;28;20460;-77
2022/11/21 10:57:14;;;;;;;7.83;4.73;;;;;;;-141.28;100.00;50852.34;5041368;28;20466;-74
2022/11/21 10:59:59;;;;;;;12.17;4.40;;;;;;;-141.28;100.00;50830.75;5100856;28;20963;-73
2022/11/21 11:02:28;;;;;;;3.70;2.70;;;;;;;-141.28;100.00;50875.91;5113638;28;20484;-75
2022/11/21 11:05:20;;;;;;;3.97;2.90;;;;;;;-141.28;100.00;51009.41;5113321;28;20452;-79
2022/11/21 11:08:00;;;;;;;4.33;2.53;;;;;;;-141.28;100.00;51080.06;5113927;28;20445;-76
2022/11/21 11:10:27;;;;;;;3.70;2.90;;;;;;;-141.28;100.00;51131.13;5103268;28;20481;-74
2022/11/21 11:15:54;;;;;;;4.30;3.47;;;;;;;-141.28;100.00;50612.88;5115492;28;20509;-75
2022/11/21 11:18:23;;;;;;;7.60;5.23;;;;;;;-141.28;100.00;50958.38;5113630;28;20440;-78
2022/11/21 11:20:51;;;;;;;6.40;4.00;;;;;;;-141.28;100.00;50899.47;5112933;28;20472;-76
2022/11/21 11:23:24;;;;;;;4.70;2.97;;;;;;;-141.28;100.00;50923.03;5112740;28;20488;-75
2022/11/21 11:25:53;;;;;;;9.13;3.60;;;;;;;-141.28;100.00;50954.44;5112776;28;20473;-75
2022/11/21 11:28:20;;;;;;;3.17;2.57;;;;;;;-141.28;100.00;51068.28;5113256;28;20958;-80
2022/11/21 11:30:50;;;;;;;5.33;3.00;;;;;;;-141.28;100.00;51260.69;5112966;28;20851;-76
2022/11/21 11:33:35;;;;;;;6.00;3.60;;;;;;;-141.28;100.00;51288.19;5113174;28;20449;-76
2022/11/21 11:36:13;;;;;;;5.67;3.33;;;;;;;-141.28;100.00;51343.16;5110091;28;20449;-76
2022/11/21 11:38:42;;;;;;;5.37;3.27;;;;;;;-141.28;100.00;51313.72;5113078;28;20440;-74
2022/11/21 11:41:24;;;;;;;2.70;2.50;;;;;;;-141.28;100.00;51325.50;5100124;28;20440;-78
2022/11/21 11:52:35;;;;;;;7.37;2.73;;;;;;;-141.28;100.00;51190.03;5099834;28;20974;-75